createdAt,value
2019-01-30T06:17:09.749Z,949.03
2019-01-30T06:18:08.712Z,949.04
2019-01-30T06:20:02.079Z,948.99
2019-01-30T06:21:02.016Z,949.00
2019-01-30T06:22:53.786Z,949.00
2019-01-30T06:23:54.603Z,948.98
2019-01-30T06:25:48.021Z,949.01
2019-01-30T06:26:47.414Z,949.02
2019-01-30T06:27:47.340Z,949.03
2019-01-30T06:28:48.047Z,949.05
2019-01-30T06:29:47.155Z,949.04
2019-01-30T06:30:47.927Z,949.03
2019-01-30T06:31:47.982Z,949.03
2019-01-30T06:32:47.917Z,949.03
2019-01-30T06:33:47.922Z,949.03
2019-01-30T06:34:46.949Z,949.02
2019-01-30T06:35:47.529Z,949.00
2019-01-30T06:36:48.013Z,949.02
2019-01-30T06:37:46.789Z,948.95
2019-01-30T06:38:47.503Z,948.97
2019-01-30T06:39:47.576Z,948.95
2019-01-30T06:40:47.536Z,948.93
2019-01-30T06:41:47.499Z,948.88
2019-01-30T06:42:47.393Z,948.88
2019-01-30T06:43:47.473Z,948.90
2019-01-30T06:44:47.225Z,948.92
2019-01-30T06:45:47.482Z,948.95
2019-01-30T06:46:45.916Z,948.93
2019-01-30T06:47:47.429Z,948.96
2019-01-30T06:48:46.972Z,948.98
2019-01-30T06:49:46.316Z,949.02
2019-01-30T06:50:47.035Z,949.03
2019-01-30T06:51:47.016Z,949.02
2019-01-30T06:52:47.025Z,949.05
2019-01-30T06:53:47.015Z,949.01
2019-01-30T06:54:46.979Z,949.03
2019-01-30T06:55:45.797Z,949.06
2019-01-30T06:56:46.990Z,949.06
2019-01-30T06:57:45.807Z,949.02
2019-01-30T06:58:45.821Z,949.01
2019-01-30T06:59:46.535Z,949.04
2019-01-30T07:00:45.659Z,949.05
2019-01-30T07:01:45.764Z,949.06
2019-01-30T07:02:46.524Z,949.06
2019-01-30T07:03:46.506Z,949.04
2019-01-30T07:04:46.446Z,949.03
2019-01-30T07:05:46.387Z,949.05
2019-01-30T07:06:46.487Z,949.03
2019-01-30T07:07:44.950Z,949.04
2019-01-30T07:08:46.078Z,949.04
2019-01-30T07:09:45.997Z,949.01
2019-01-30T07:10:46.026Z,949.01
2019-01-30T07:11:45.290Z,949.04
2019-01-30T07:12:46.019Z,949.03
2019-01-30T07:13:45.310Z,949.03
2019-01-30T07:14:45.934Z,949.03
2019-01-30T07:15:45.090Z,948.99
2019-01-30T07:16:44.998Z,949.03
2019-01-30T07:17:45.607Z,948.99
2019-01-30T07:18:45.964Z,949.01
2019-01-30T07:19:45.581Z,949.00
2019-01-30T07:20:46.553Z,948.99
2019-01-30T07:21:45.525Z,948.97
2019-01-30T07:22:44.816Z,949.00
2019-01-30T07:23:45.563Z,948.98
2019-01-30T07:24:44.691Z,948.97
2019-01-30T07:25:45.499Z,948.98
2019-01-30T07:26:44.255Z,948.96
2019-01-30T07:27:45.424Z,948.98
2019-01-30T07:28:44.489Z,949.02
2019-01-30T07:29:45.428Z,949.03
2019-01-30T07:30:44.339Z,949.04
2019-01-30T07:31:45.085Z,949.03
2019-01-30T07:32:44.147Z,949.02
2019-01-30T07:33:43.742Z,949.03
2019-01-30T07:34:46.072Z,949.01
2019-01-30T07:35:43.451Z,948.99
2019-01-30T07:36:44.184Z,949.01
2019-01-30T07:37:43.882Z,948.99
2019-01-30T07:38:43.521Z,948.99
2019-01-30T07:39:43.814Z,948.99
2019-01-30T07:40:43.654Z,948.98
2019-01-30T07:41:43.087Z,948.96
2019-01-30T07:42:44.647Z,948.98
2019-01-30T07:43:43.552Z,948.93
2019-01-30T07:44:50.481Z,948.95
2019-01-30T07:45:44.201Z,948.96
2019-01-30T07:46:44.468Z,948.95
2019-01-30T07:47:44.501Z,948.94
2019-01-30T07:48:43.503Z,948.95
2019-01-30T07:49:44.505Z,948.97
2019-01-30T07:50:44.392Z,948.97
2019-01-30T07:51:44.503Z,948.92
2019-01-30T07:52:44.442Z,948.94
2019-01-30T07:53:44.060Z,948.95
2019-01-30T07:54:43.787Z,948.89
2019-01-30T07:55:43.549Z,948.92
2019-01-30T07:56:43.999Z,948.92
2019-01-30T07:57:44.008Z,948.95
2019-01-30T07:58:44.004Z,948.98
2019-01-30T07:59:42.693Z,948.98
2019-01-30T08:00:43.027Z,949.00
2019-01-30T08:01:42.791Z,949.00
2019-01-30T08:02:52.625Z,949.01
2019-01-30T08:03:43.086Z,948.98
2019-01-30T08:04:43.997Z,948.95
2019-01-30T08:05:42.670Z,948.99
2019-01-30T08:06:43.578Z,948.98
2019-01-30T08:07:43.505Z,948.99
2019-01-30T08:08:43.505Z,949.00
2019-01-30T08:09:43.526Z,949.02
2019-01-30T08:10:42.459Z,949.06
2019-01-30T08:11:43.467Z,949.05
2019-01-30T08:12:42.615Z,949.03
2019-01-30T08:13:42.453Z,949.04
2019-01-30T08:14:43.085Z,949.01
2019-01-30T08:15:42.471Z,949.01
2019-01-30T08:16:43.023Z,949.02
2019-01-30T08:17:43.050Z,949.01
2019-01-30T08:18:43.388Z,949.02
2019-01-30T08:19:42.228Z,949.05
2019-01-30T08:20:43.087Z,949.02
2019-01-30T08:21:42.148Z,949.03
2019-01-30T08:22:43.018Z,949.06
2019-01-30T08:23:42.563Z,949.09
2019-01-30T08:24:41.875Z,949.06
2019-01-30T08:25:43.214Z,949.09
2019-01-30T08:26:42.747Z,949.10
2019-01-30T08:27:41.939Z,949.12
2019-01-30T08:28:42.760Z,949.10
2019-01-30T08:29:42.238Z,949.11
2019-01-30T08:30:42.699Z,949.13
2019-01-30T08:31:41.189Z,949.11
2019-01-30T08:32:42.607Z,949.11
2019-01-30T08:33:42.518Z,949.12
2019-01-30T08:34:41.604Z,949.12
2019-01-30T08:35:42.502Z,949.15
2019-01-30T08:36:42.529Z,949.14
2019-01-30T08:37:40.999Z,949.15
2019-01-30T08:38:41.048Z,949.16
2019-01-30T08:39:41.074Z,949.17
2019-01-30T08:40:41.035Z,949.20
2019-01-30T08:41:40.417Z,949.18
2019-01-30T08:42:40.799Z,949.18
2019-01-30T08:43:40.307Z,949.18
2019-01-30T08:44:46.835Z,949.16
2019-01-30T08:45:40.217Z,949.17
2019-01-30T08:46:40.625Z,949.15
2019-01-30T08:47:40.319Z,949.15
2019-01-30T08:48:40.238Z,949.15
2019-01-30T08:49:40.348Z,949.16
2019-01-30T08:50:40.821Z,949.12
2019-01-30T08:51:40.165Z,949.14
2019-01-30T08:52:40.119Z,949.09
2019-01-30T08:53:40.468Z,949.13
2019-01-30T08:54:40.222Z,949.08
2019-01-30T08:55:39.775Z,949.15
2019-01-30T08:56:52.320Z,949.15
2019-01-30T08:57:39.729Z,949.16
2019-01-30T08:58:40.555Z,949.14
2019-01-30T08:59:39.798Z,949.15
2019-01-30T09:00:39.664Z,949.17
2019-01-30T09:01:39.657Z,949.18
2019-01-30T09:02:39.675Z,949.18
2019-01-30T09:03:39.554Z,949.18
2019-01-30T09:04:39.802Z,949.18
2019-01-30T09:05:39.744Z,949.15
2019-01-30T09:06:39.880Z,949.16
2019-01-30T09:07:44.478Z,949.16
2019-01-30T09:08:39.944Z,949.16
2019-01-30T09:09:39.530Z,949.19
2019-01-30T09:10:39.133Z,949.18
2019-01-30T09:11:39.305Z,949.19
2019-01-30T09:12:39.038Z,949.20
2019-01-30T09:13:39.544Z,949.20
2019-01-30T09:14:38.930Z,949.19
2019-01-30T09:15:39.613Z,949.17
2019-01-30T09:16:39.066Z,949.17
2019-01-30T09:17:38.987Z,949.16
2019-01-30T09:18:39.494Z,949.15
2019-01-30T09:19:38.879Z,949.20
2019-01-30T09:20:38.673Z,949.19
2019-01-30T09:21:40.107Z,949.24
2019-01-30T09:22:38.586Z,949.22
2019-01-30T09:23:39.073Z,949.23
2019-01-30T09:24:38.804Z,949.22
2019-01-30T09:25:38.658Z,949.22
2019-01-30T09:26:38.959Z,949.24
2019-01-30T09:27:39.203Z,949.24
2019-01-30T09:28:39.026Z,949.24
2019-01-30T09:29:38.842Z,949.25
2019-01-30T09:30:38.799Z,949.25
2019-01-30T09:31:38.186Z,949.28
2019-01-30T09:32:38.240Z,949.27
2019-01-30T09:33:38.435Z,949.26
2019-01-30T09:34:38.363Z,949.30
2019-01-30T09:35:39.530Z,949.30
2019-01-30T09:36:37.958Z,949.30
2019-01-30T09:37:38.675Z,949.33
2019-01-30T09:38:38.311Z,949.36
2019-01-30T09:39:38.248Z,949.35
2019-01-30T09:40:38.212Z,949.38
2019-01-30T09:41:37.862Z,949.35
2019-01-30T09:42:38.156Z,949.37
2019-01-30T09:43:38.417Z,949.36
2019-01-30T09:44:37.714Z,949.35
2019-01-30T09:45:37.579Z,949.33
2019-01-30T09:46:37.958Z,949.37
2019-01-30T09:47:37.477Z,949.33
2019-01-30T09:48:37.550Z,949.34
2019-01-30T09:49:37.388Z,949.35
2019-01-30T09:50:37.370Z,949.37
2019-01-30T09:51:37.698Z,949.38
2019-01-30T09:52:37.527Z,949.36
2019-01-30T09:53:37.239Z,949.35
2019-01-30T09:54:37.165Z,949.40
2019-01-30T09:55:37.392Z,949.40
2019-01-30T09:56:37.107Z,949.37
2019-01-30T09:57:37.249Z,949.40
2019-01-30T09:58:37.189Z,949.39
2019-01-30T09:59:37.262Z,949.40
2019-01-30T10:00:37.047Z,949.44
2019-01-30T10:01:37.278Z,949.42
2019-01-30T10:02:36.810Z,949.44
2019-01-30T10:03:37.369Z,949.42
2019-01-30T10:04:36.764Z,949.45
2019-01-30T10:05:36.691Z,949.44
2019-01-30T10:06:36.633Z,949.39
2019-01-30T10:07:37.162Z,949.44
2019-01-30T10:08:37.348Z,949.44
2019-01-30T10:09:37.761Z,949.45
2019-01-30T10:10:38.002Z,949.47
2019-01-30T10:11:37.935Z,949.44
2019-01-30T10:12:36.813Z,949.49
2019-01-30T10:13:37.488Z,949.50
2019-01-30T10:14:37.010Z,949.51
2019-01-30T10:15:37.128Z,949.52
2019-01-30T10:16:36.197Z,949.52
2019-01-30T10:17:36.724Z,949.54
2019-01-30T10:18:36.409Z,949.55
2019-01-30T10:19:38.844Z,949.55
2019-01-30T10:20:36.461Z,949.55
2019-01-30T10:21:35.974Z,949.57
2019-01-30T10:22:36.353Z,949.57
2019-01-30T10:23:35.884Z,949.57
2019-01-30T10:24:35.838Z,949.57
2019-01-30T10:25:36.234Z,949.58
2019-01-30T10:26:36.164Z,949.59
2019-01-30T10:27:36.085Z,949.63
2019-01-30T10:28:35.813Z,949.62
2019-01-30T10:29:36.837Z,949.61
2019-01-30T10:30:35.580Z,949.58
2019-01-30T10:31:36.255Z,949.59
2019-01-30T10:32:35.887Z,949.59
2019-01-30T10:33:45.691Z,949.59
2019-01-30T10:34:35.396Z,949.57
2019-01-30T10:35:35.701Z,949.55
2019-01-30T10:36:37.086Z,949.55
2019-01-30T10:37:35.668Z,949.52
2019-01-30T10:38:35.646Z,949.52
2019-01-30T10:39:35.179Z,949.52
2019-01-30T10:40:35.320Z,949.50
2019-01-30T10:41:35.248Z,949.51
2019-01-30T10:42:35.660Z,949.54
2019-01-30T10:43:35.775Z,949.53
2019-01-30T10:44:35.619Z,949.50
2019-01-30T10:45:37.961Z,949.51
2019-01-30T10:46:35.277Z,949.51
2019-01-30T10:47:35.593Z,949.52
2019-01-30T10:48:36.480Z,949.52
2019-01-30T10:49:34.954Z,949.55
2019-01-30T10:50:34.734Z,949.53
2019-01-30T10:51:35.062Z,949.53
2019-01-30T10:52:36.586Z,949.55
2019-01-30T10:53:34.557Z,949.50
2019-01-30T10:54:34.970Z,949.55
2019-01-30T10:55:34.661Z,949.58
2019-01-30T10:56:35.612Z,949.57
2019-01-30T10:57:36.589Z,949.58
2019-01-30T10:58:34.769Z,949.59
2019-01-30T10:59:34.335Z,949.58
2019-01-30T11:00:34.609Z,949.57
2019-01-30T11:01:34.611Z,949.59
2019-01-30T11:02:34.161Z,949.61
2019-01-30T11:03:34.167Z,949.62
2019-01-30T11:04:34.262Z,949.63
2019-01-30T11:05:34.079Z,949.61
2019-01-30T11:06:33.987Z,949.63
2019-01-30T11:07:33.990Z,949.59
2019-01-30T11:08:34.582Z,949.60
2019-01-30T11:09:33.854Z,949.62
2019-01-30T11:10:33.834Z,949.63
2019-01-30T11:11:33.926Z,949.59
2019-01-30T11:12:34.025Z,949.60
2019-01-30T11:13:33.956Z,949.65
2019-01-30T11:14:33.991Z,949.63
2019-01-30T11:15:33.585Z,949.67
2019-01-30T11:16:33.737Z,949.66
2019-01-30T11:17:33.564Z,949.66
2019-01-30T11:18:33.682Z,949.69
2019-01-30T11:19:33.743Z,949.64
2019-01-30T11:20:33.666Z,949.65
2019-01-30T11:21:33.469Z,949.67
2019-01-30T11:22:33.661Z,949.64
2019-01-30T11:23:33.258Z,949.65
2019-01-30T11:24:33.196Z,949.68
2019-01-30T11:25:33.146Z,949.68
2019-01-30T11:26:33.140Z,949.69
2019-01-30T11:27:33.059Z,949.68
2019-01-30T11:28:33.015Z,949.70
2019-01-30T11:29:33.078Z,949.71
2019-01-30T11:30:35.021Z,949.68
2019-01-30T11:31:33.299Z,949.74
2019-01-30T11:32:34.622Z,949.70
2019-01-30T11:33:34.589Z,949.71
2019-01-30T11:34:33.587Z,949.69
2019-01-30T11:35:34.514Z,949.70
2019-01-30T11:36:33.314Z,949.68
2019-01-30T11:37:33.444Z,949.68
2019-01-30T11:38:32.582Z,949.66
2019-01-30T11:39:32.530Z,949.68
2019-01-30T11:40:32.501Z,949.69
2019-01-30T11:41:32.448Z,949.68
2019-01-30T11:42:32.402Z,949.72
2019-01-30T11:43:32.353Z,949.72
2019-01-30T11:44:32.312Z,949.72
2019-01-30T11:45:32.271Z,949.69
2019-01-30T11:46:32.228Z,949.69
2019-01-30T11:47:32.193Z,949.68
2019-01-30T11:48:32.138Z,949.65
2019-01-30T11:49:34.154Z,949.68
2019-01-30T11:50:32.046Z,949.71
2019-01-30T11:51:32.003Z,949.71
2019-01-30T11:52:31.958Z,949.73
2019-01-30T11:53:31.915Z,949.75
2019-01-30T11:54:38.670Z,949.76
2019-01-30T11:55:31.830Z,949.72
2019-01-30T11:56:31.788Z,949.74
2019-01-30T11:57:31.739Z,949.75
2019-01-30T11:58:31.701Z,949.75
2019-01-30T11:59:31.650Z,949.77
2019-01-30T12:00:31.606Z,949.80
2019-01-30T12:01:31.646Z,949.77
2019-01-30T12:02:31.522Z,949.80
2019-01-30T12:03:31.475Z,949.82
2019-01-30T12:04:31.435Z,949.79
2019-01-30T12:05:31.391Z,949.84
2019-01-30T12:06:31.336Z,949.86
2019-01-30T12:07:31.301Z,949.83
2019-01-30T12:08:31.256Z,949.81
2019-01-30T12:09:31.222Z,949.83
2019-01-30T12:10:31.168Z,949.84
2019-01-30T12:11:31.123Z,949.87
2019-01-30T12:12:31.083Z,949.90
2019-01-30T12:13:31.035Z,949.91
2019-01-30T12:14:30.991Z,949.91
2019-01-30T12:15:30.949Z,949.86
2019-01-30T12:16:30.903Z,949.86
2019-01-30T12:17:30.860Z,949.89
2019-01-30T12:18:30.820Z,949.96
2019-01-30T12:19:30.768Z,949.92
2019-01-30T12:20:30.721Z,949.90
2019-01-30T12:21:30.679Z,949.92
2019-01-30T12:22:30.634Z,949.90
2019-01-30T12:23:30.592Z,949.89
2019-01-30T12:24:30.546Z,949.89
2019-01-30T12:25:30.501Z,949.93
2019-01-30T12:26:30.470Z,949.91
2019-01-30T12:27:30.510Z,949.94
2019-01-30T12:28:30.375Z,949.98
2019-01-30T12:29:30.328Z,949.96
2019-01-30T12:30:30.291Z,949.97
2019-01-30T12:31:30.241Z,950.00
2019-01-30T12:32:30.196Z,950.00
2019-01-30T12:33:30.150Z,949.99
2019-01-30T12:34:30.112Z,950.02
2019-01-30T12:35:30.064Z,950.03
2019-01-30T12:36:30.018Z,950.05
2019-01-30T12:37:29.980Z,950.09
2019-01-30T12:38:29.941Z,950.06
2019-01-30T12:39:29.889Z,950.08
2019-01-30T12:40:29.842Z,950.09
2019-01-30T12:41:29.798Z,950.09
2019-01-30T12:42:29.776Z,950.12
2019-01-30T12:43:29.710Z,950.15
2019-01-30T12:44:29.667Z,950.11
2019-01-30T12:45:29.621Z,950.09
2019-01-30T12:46:29.585Z,950.09
2019-01-30T12:47:29.535Z,950.12
2019-01-30T12:48:29.507Z,950.14
2019-01-30T12:49:29.447Z,950.12
2019-01-30T12:50:29.402Z,950.12
2019-01-30T12:51:29.448Z,950.17
2019-01-30T12:52:29.317Z,950.15
2019-01-30T12:53:29.270Z,950.14
2019-01-30T12:54:29.227Z,950.19
2019-01-30T12:55:29.732Z,950.23
2019-01-30T12:56:29.208Z,950.24
2019-01-30T12:57:29.176Z,950.28
2019-01-30T12:58:29.151Z,950.26
2019-01-30T12:59:29.007Z,950.29
2019-01-30T13:00:28.963Z,950.30
2019-01-30T13:01:30.901Z,950.33
2019-01-30T13:02:28.873Z,950.31
2019-01-30T13:03:28.831Z,950.31
2019-01-30T13:04:38.389Z,950.31
2019-01-30T13:05:28.745Z,950.30
2019-01-30T13:06:28.698Z,950.31
2019-01-30T13:07:28.654Z,950.33
2019-01-30T13:08:28.610Z,950.30
2019-01-30T13:09:28.625Z,950.30
2019-01-30T13:10:28.525Z,950.31
2019-01-30T13:11:28.481Z,950.28
2019-01-30T13:12:28.434Z,950.28
2019-01-30T13:13:28.390Z,950.26
2019-01-30T13:14:28.348Z,950.26
2019-01-30T13:15:28.304Z,950.26
2019-01-30T13:16:28.262Z,950.26
2019-01-30T13:17:28.651Z,950.28
2019-01-30T13:18:28.275Z,950.27
2019-01-30T13:19:28.126Z,950.27
2019-01-30T13:20:28.085Z,950.25
2019-01-30T13:21:28.037Z,950.31
2019-01-30T13:22:27.996Z,950.35
2019-01-30T13:23:27.950Z,950.32
2019-01-30T13:24:27.906Z,950.34
2019-01-30T13:25:27.868Z,950.37
2019-01-30T13:26:27.818Z,950.40
2019-01-30T13:27:27.790Z,950.38
2019-01-30T13:28:27.731Z,950.41
2019-01-30T13:29:27.686Z,950.39
2019-01-30T13:30:27.641Z,950.42
2019-01-30T13:31:27.599Z,950.40
2019-01-30T13:32:27.571Z,950.43
2019-01-30T13:33:27.508Z,950.45
2019-01-30T13:34:27.467Z,950.50
2019-01-30T13:35:27.423Z,950.49
2019-01-30T13:36:27.378Z,950.49
2019-01-30T13:37:27.333Z,950.49
2019-01-30T13:38:27.289Z,950.51
2019-01-30T13:39:27.247Z,950.53
2019-01-30T13:40:27.203Z,950.53
2019-01-30T13:41:27.155Z,950.56
2019-01-30T13:42:27.118Z,950.56
2019-01-30T13:43:27.069Z,950.57
2019-01-30T13:44:27.025Z,950.60
2019-01-30T13:45:26.983Z,950.62
2019-01-30T13:46:26.938Z,950.66
2019-01-30T13:47:26.894Z,950.66
2019-01-30T13:48:26.872Z,950.70
2019-01-30T13:49:26.817Z,950.69
2019-01-30T13:50:26.785Z,950.70
2019-01-30T13:51:26.728Z,950.74
2019-01-30T13:52:26.673Z,950.74
2019-01-30T13:53:26.640Z,950.79
2019-01-30T13:54:26.585Z,950.76
2019-01-30T13:55:26.557Z,950.79
2019-01-30T13:56:26.499Z,950.77
2019-01-30T13:57:26.467Z,950.80
2019-01-30T13:58:26.435Z,950.81
2019-01-30T13:59:26.372Z,950.81
2019-01-30T14:00:26.321Z,950.84
2019-01-30T14:01:26.282Z,950.84
2019-01-30T14:02:26.237Z,950.85
2019-01-30T14:03:26.197Z,950.88
2019-01-30T14:04:26.160Z,950.82
2019-01-30T14:05:26.104Z,950.90
2019-01-30T14:06:26.076Z,950.87
2019-01-30T14:07:26.363Z,950.93
2019-01-30T14:08:25.975Z,950.87
2019-01-30T14:09:25.952Z,950.91
2019-01-30T14:10:27.196Z,950.91
2019-01-30T14:11:25.884Z,950.95
2019-01-30T14:12:25.819Z,950.98
2019-01-30T14:13:25.752Z,951.00
2019-01-30T14:14:25.814Z,950.99
2019-01-30T14:15:25.668Z,951.01
2019-01-30T14:16:25.623Z,951.02
2019-01-30T14:17:25.577Z,951.06
2019-01-30T14:18:25.526Z,951.06
2019-01-30T14:19:25.486Z,951.10
2019-01-30T14:20:25.443Z,951.11
2019-01-30T14:21:25.416Z,951.10
2019-01-30T14:22:25.360Z,951.14
2019-01-30T14:23:25.311Z,951.19
2019-01-30T14:24:25.291Z,951.21
2019-01-30T14:25:25.264Z,951.18
2019-01-30T14:26:25.184Z,951.25
2019-01-30T14:27:25.149Z,951.24
2019-01-30T14:28:25.092Z,951.22
2019-01-30T14:29:25.042Z,951.27
2019-01-30T14:30:25.042Z,951.28
2019-01-30T14:31:24.963Z,951.29
2019-01-30T14:32:24.925Z,951.29
2019-01-30T14:33:24.882Z,951.34
2019-01-30T14:34:24.826Z,951.35
2019-01-30T14:35:24.827Z,951.34
2019-01-30T14:36:24.763Z,951.36
2019-01-30T14:37:24.732Z,951.37
2019-01-30T14:38:24.651Z,951.38
2019-01-30T14:39:24.682Z,951.45
2019-01-30T14:40:24.562Z,951.47
2019-01-30T14:41:24.525Z,951.46
2019-01-30T14:42:24.480Z,951.45
2019-01-30T14:43:24.431Z,951.50
2019-01-30T14:44:24.385Z,951.47
2019-01-30T14:45:24.344Z,951.49
2019-01-30T14:46:24.301Z,951.55
2019-01-30T14:47:24.251Z,951.56
2019-01-30T14:48:24.205Z,951.57
2019-01-30T14:49:24.175Z,951.61
2019-01-30T14:50:24.136Z,951.65
2019-01-30T14:51:24.112Z,951.65
2019-01-30T14:52:24.310Z,951.66
2019-01-30T14:53:24.039Z,951.73
2019-01-30T14:54:23.942Z,951.74
2019-01-30T14:55:23.907Z,951.78
2019-01-30T14:56:23.878Z,951.78
2019-01-30T14:57:23.819Z,951.80
2019-01-30T14:58:24.891Z,951.83
2019-01-30T14:59:23.733Z,951.83
2019-01-30T15:00:23.724Z,951.83
2019-01-30T15:01:23.679Z,951.86
2019-01-30T15:02:23.606Z,951.87
2019-01-30T15:03:23.609Z,951.89
2019-01-30T15:04:23.550Z,951.91
2019-01-30T15:05:23.467Z,951.95
2019-01-30T15:06:23.444Z,951.95
2019-01-30T15:07:29.009Z,951.96
2019-01-30T15:08:23.470Z,951.99
2019-01-30T15:09:23.390Z,952.01
2019-01-30T15:10:23.445Z,952.03
2019-01-30T15:11:23.215Z,952.05
2019-01-30T15:12:23.174Z,952.08
2019-01-30T15:13:23.103Z,952.09
2019-01-30T15:14:23.064Z,952.07
2019-01-30T15:15:23.062Z,952.14
2019-01-30T15:16:22.978Z,952.16
2019-01-30T15:17:22.930Z,952.12
2019-01-30T15:18:23.037Z,952.17
2019-01-30T15:19:22.995Z,952.18
2019-01-30T15:20:22.847Z,952.21
2019-01-30T15:21:22.769Z,952.21
2019-01-30T15:22:22.711Z,952.25
2019-01-30T15:23:22.665Z,952.23
2019-01-30T15:24:22.625Z,952.24
2019-01-30T15:25:22.579Z,952.23
2019-01-30T15:26:22.531Z,952.25
2019-01-30T15:27:22.661Z,952.26
2019-01-30T15:28:22.450Z,952.23
2019-01-30T15:29:22.401Z,952.29
2019-01-30T15:30:22.361Z,952.29
2019-01-30T15:31:22.324Z,952.28
2019-01-30T15:32:22.270Z,952.31
2019-01-30T15:33:22.227Z,952.32
2019-01-30T15:34:22.182Z,952.32
2019-01-30T15:35:32.896Z,952.33
2019-01-30T15:36:22.096Z,952.34
2019-01-30T15:37:22.051Z,952.35
2019-01-30T15:38:22.007Z,952.40
2019-01-30T15:39:21.970Z,952.38
2019-01-30T15:40:21.961Z,952.39
2019-01-30T15:41:21.905Z,952.40
2019-01-30T15:42:21.824Z,952.41
2019-01-30T15:43:21.881Z,952.41
2019-01-30T15:44:22.311Z,952.48
2019-01-30T15:45:21.786Z,952.49
2019-01-30T15:46:21.660Z,952.47
2019-01-30T15:47:21.693Z,952.48
2019-01-30T15:48:21.637Z,952.52
2019-01-30T15:49:21.582Z,952.51
2019-01-30T15:50:21.497Z,952.54
2019-01-30T15:51:21.432Z,952.58
2019-01-30T15:52:21.446Z,952.63
2019-01-30T15:53:21.393Z,952.63
2019-01-30T15:54:21.405Z,952.65
2019-01-30T15:55:21.278Z,952.65
2019-01-30T15:56:21.312Z,952.68
2019-01-30T15:57:21.191Z,952.70
2019-01-30T15:58:21.143Z,952.70
2019-01-30T15:59:21.098Z,952.67
2019-01-30T16:00:21.097Z,952.69
2019-01-30T16:01:20.996Z,952.66
2019-01-30T16:02:20.994Z,952.68
2019-01-30T16:03:20.934Z,952.67
2019-01-30T16:04:20.894Z,952.68
2019-01-30T16:05:20.815Z,952.68
2019-01-30T16:06:20.820Z,952.71
2019-01-30T16:07:20.731Z,952.74
2019-01-30T16:08:20.720Z,952.75
2019-01-30T16:09:20.649Z,952.76
2019-01-30T16:10:20.637Z,952.76
2019-01-30T16:11:20.678Z,952.73
2019-01-30T16:12:20.664Z,952.76
2019-01-30T16:13:20.459Z,952.75
2019-01-30T16:14:20.511Z,952.77
2019-01-30T16:15:20.476Z,952.76
2019-01-30T16:16:20.431Z,952.79
2019-01-30T16:17:20.376Z,952.79
2019-01-30T16:18:20.274Z,952.81
2019-01-30T16:19:20.266Z,952.80
2019-01-30T16:20:20.210Z,952.83
2019-01-30T16:21:20.157Z,952.85
2019-01-30T16:22:20.109Z,952.86
2019-01-30T16:23:20.084Z,952.89
2019-01-30T16:24:20.023Z,952.87
2019-01-30T16:25:19.931Z,952.93
2019-01-30T16:26:19.892Z,952.93
2019-01-30T16:27:19.846Z,952.92
2019-01-30T16:28:19.805Z,952.93
2019-01-30T16:29:19.765Z,952.97
2019-01-30T16:30:19.716Z,952.95
2019-01-30T16:31:19.666Z,952.97
2019-01-30T16:32:19.656Z,952.98
2019-01-30T16:33:19.580Z,953.03
2019-01-30T16:34:19.537Z,953.04
2019-01-30T16:35:19.493Z,953.05
2019-01-30T16:36:19.449Z,953.04
2019-01-30T16:37:19.409Z,953.09
2019-01-30T16:38:19.362Z,953.04
2019-01-30T16:39:19.310Z,953.08
2019-01-30T16:40:19.271Z,953.09
2019-01-30T16:41:19.229Z,953.13
2019-01-30T16:42:19.182Z,953.14
2019-01-30T16:43:19.141Z,953.17
2019-01-30T16:44:19.092Z,953.16
2019-01-30T16:45:19.053Z,953.17
2019-01-30T16:46:19.008Z,953.21
2019-01-30T16:47:18.969Z,953.20
2019-01-30T16:48:18.921Z,953.19
2019-01-30T16:49:18.876Z,953.22
2019-01-30T16:50:18.832Z,953.25
2019-01-30T16:51:18.781Z,953.21
2019-01-30T16:52:18.743Z,953.27
2019-01-30T16:53:18.694Z,953.24
2019-01-30T16:54:18.654Z,953.24
2019-01-30T16:55:18.603Z,953.31
2019-01-30T16:56:18.563Z,953.27
2019-01-30T16:57:18.542Z,953.28
2019-01-30T16:58:18.476Z,953.31
2019-01-30T16:59:18.433Z,953.30
2019-01-30T17:00:18.461Z,953.35
2019-01-30T17:01:18.346Z,953.33
2019-01-30T17:02:18.299Z,953.35
2019-01-30T17:03:18.280Z,953.36
2019-01-30T17:04:18.209Z,953.35
2019-01-30T17:05:18.163Z,953.39
2019-01-30T17:06:18.123Z,953.37
